Brentwood, New York
Current Conditions -  °F | °C
As of 9:56 PM on Saturday 20 Dec 2014 (Local Time) from KISP Reporting Station
Overcast Overcast  
Wind Chill: 33°   Ceiling: 1500
Heat Index: 33°   Visibility: 10mi
Dew Point: 23°   Wind: 3mph
Humidity: 66%   Direction: 260°W
Pressure: 30.28"   Gusts: NA
Location:  40.78°N, 73.25°W
Report Text: KISP 210256Z 26003KT 10SM BKN015 OVC027 01/M05 A3028 RMK AO2 SLP253 T00061050 53003
Loading
Personal Weather Stations






























Interactive Weather Map New forecast layout! Learn more

10-Day Weather Forecast

Advertisements
Track Severe Weather on mobile